sensor_id;sensor_type;location;lat;lon;timestamp;P1;durP1;ratioP1;P2;durP2;ratioP2
9986;SDS011;5033;46.310;11.214;2023-12-20T00:01:08;3.00;;;2.83;;
9986;SDS011;5033;46.310;11.214;2023-12-20T00:03:35;3.30;;;3.10;;
9986;SDS011;5033;46.310;11.214;2023-12-20T00:06:02;3.63;;;3.33;;
9986;SDS011;5033;46.310;11.214;2023-12-20T00:08:29;4.03;;;3.72;;
9986;SDS011;5033;46.310;11.214;2023-12-20T00:10:56;3.70;;;3.40;;
9986;SDS011;5033;46.310;11.214;2023-12-20T00:13:23;3.53;;;3.33;;
9986;SDS011;5033;46.310;11.214;2023-12-20T00:15:52;3.22;;;3.03;;
9986;SDS011;5033;46.310;11.214;2023-12-20T00:18:19;3.03;;;2.83;;
9986;SDS011;5033;46.310;11.214;2023-12-20T00:20:45;2.88;;;2.67;;
9986;SDS011;5033;46.310;11.214;2023-12-20T00:23:12;3.03;;;2.92;;
9986;SDS011;5033;46.310;11.214;2023-12-20T00:25:39;3.30;;;3.10;;
9986;SDS011;5033;46.310;11.214;2023-12-20T00:28:06;3.25;;;2.97;;
9986;SDS011;5033;46.310;11.214;2023-12-20T00:30:33;3.85;;;3.65;;
9986;SDS011;5033;46.310;11.214;2023-12-20T00:33:02;3.22;;;3.03;;
9986;SDS011;5033;46.310;11.214;2023-12-20T00:35:30;3.42;;;3.22;;
9986;SDS011;5033;46.310;11.214;2023-12-20T00:37:57;3.30;;;3.10;;
9986;SDS011;5033;46.310;11.214;2023-12-20T00:40:25;3.05;;;2.85;;
9986;SDS011;5033;46.310;11.214;2023-12-20T00:42:52;3.65;;;3.45;;
9986;SDS011;5033;46.310;11.214;2023-12-20T00:45:19;3.25;;;3.05;;
9986;SDS011;5033;46.310;11.214;2023-12-20T00:47:46;3.13;;;2.92;;
9986;SDS011;5033;46.310;11.214;2023-12-20T00:50:14;3.75;;;3.40;;
9986;SDS011;5033;46.310;11.214;2023-12-20T00:52:41;3.50;;;3.30;;
9986;SDS011;5033;46.310;11.214;2023-12-20T00:55:08;3.50;;;3.30;;
9986;SDS011;5033;46.310;11.214;2023-12-20T00:57:35;4.05;;;3.75;;
9986;SDS011;5033;46.310;11.214;2023-12-20T01:00:03;3.30;;;3.10;;
9986;SDS011;5033;46.310;11.214;2023-12-20T01:02:30;3.28;;;3.08;;
9986;SDS011;5033;46.310;11.214;2023-12-20T01:04:58;3.53;;;3.33;;
9986;SDS011;5033;46.310;11.214;2023-12-20T01:07:26;3.60;;;3.40;;
9986;SDS011;5033;46.310;11.214;2023-12-20T01:09:53;3.38;;;3.17;;
9986;SDS011;5033;46.310;11.214;2023-12-20T01:12:20;3.50;;;3.30;;
9986;SDS011;5033;46.310;11.214;2023-12-20T01:14:47;3.53;;;3.33;;
9986;SDS011;5033;46.310;11.214;2023-12-20T01:17:14;3.25;;;3.05;;
9986;SDS011;5033;46.310;11.214;2023-12-20T01:19:42;3.38;;;3.17;;
9986;SDS011;5033;46.310;11.214;2023-12-20T01:22:09;3.42;;;3.22;;
9986;SDS011;5033;46.310;11.214;2023-12-20T01:24:37;3.20;;;3.00;;
9986;SDS011;5033;46.310;11.214;2023-12-20T01:27:04;3.30;;;3.10;;
9986;SDS011;5033;46.310;11.214;2023-12-20T01:29:31;3.53;;;3.33;;
9986;SDS011;5033;46.310;11.214;2023-12-20T01:31:58;3.72;;;3.42;;
9986;SDS011;5033;46.310;11.214;2023-12-20T01:34:25;3.60;;;3.40;;
9986;SDS011;5033;46.310;11.214;2023-12-20T01:36:52;4.10;;;3.80;;
9986;SDS011;5033;46.310;11.214;2023-12-20T01:39:19;4.60;;;4.25;;
9986;SDS011;5033;46.310;11.214;2023-12-20T01:41:47;4.95;;;4.57;;
9986;SDS011;5033;46.310;11.214;2023-12-20T01:44:14;4.35;;;4.05;;
9986;SDS011;5033;46.310;11.214;2023-12-20T01:46:42;3.80;;;3.50;;
9986;SDS011;5033;46.310;11.214;2023-12-20T01:49:09;3.53;;;3.33;;
9986;SDS011;5033;46.310;11.214;2023-12-20T01:51:36;4.05;;;3.75;;
9986;SDS011;5033;46.310;11.214;2023-12-20T01:54:03;4.10;;;3.80;;
9986;SDS011;5033;46.310;11.214;2023-12-20T01:56:31;4.63;;;4.32;;
9986;SDS011;5033;46.310;11.214;2023-12-20T01:59:00;3.95;;;3.72;;
9986;SDS011;5033;46.310;11.214;2023-12-20T02:01:29;3.90;;;3.60;;
9986;SDS011;5033;46.310;11.214;2023-12-20T02:03:57;3.65;;;3.45;;
9986;SDS011;5033;46.310;11.214;2023-12-20T02:06:25;3.80;;;3.60;;
9986;SDS011;5033;46.310;11.214;2023-12-20T02:08:56;3.58;;;3.30;;
9986;SDS011;5033;46.310;11.214;2023-12-20T02:11:24;3.35;;;3.15;;
9986;SDS011;5033;46.310;11.214;2023-12-20T02:13:53;3.30;;;3.10;;
9986;SDS011;5033;46.310;11.214;2023-12-20T02:16:21;3.30;;;3.10;;
9986;SDS011;5033;46.310;11.214;2023-12-20T02:18:48;2.80;;;2.70;;
9986;SDS011;5033;46.310;11.214;2023-12-20T02:21:16;3.42;;;3.22;;
9986;SDS011;5033;46.310;11.214;2023-12-20T02:23:44;3.30;;;3.10;;
9986;SDS011;5033;46.310;11.214;2023-12-20T02:26:11;3.08;;;2.92;;
9986;SDS011;5033;46.310;11.214;2023-12-20T02:28:40;3.65;;;3.42;;
9986;SDS011;5033;46.310;11.214;2023-12-20T02:31:07;3.35;;;3.15;;
9986;SDS011;5033;46.310;11.214;2023-12-20T02:33:34;3.38;;;3.17;;
9986;SDS011;5033;46.310;11.214;2023-12-20T02:36:01;3.67;;;3.40;;
9986;SDS011;5033;46.310;11.214;2023-12-20T02:38:28;3.92;;;3.63;;
9986;SDS011;5033;46.310;11.214;2023-12-20T02:40:57;3.60;;;3.38;;
9986;SDS011;5033;46.310;11.214;2023-12-20T02:43:24;3.70;;;3.50;;
9986;SDS011;5033;46.310;11.214;2023-12-20T02:45:51;3.17;;;2.97;;
9986;SDS011;5033;46.310;11.214;2023-12-20T02:48:18;3.75;;;3.55;;
9986;SDS011;5033;46.310;11.214;2023-12-20T02:50:45;3.90;;;3.60;;
9986;SDS011;5033;46.310;11.214;2023-12-20T02:53:14;3.13;;;2.92;;
9986;SDS011;5033;46.310;11.214;2023-12-20T02:55:41;3.38;;;3.17;;
9986;SDS011;5033;46.310;11.214;2023-12-20T02:58:10;3.25;;;3.05;;
9986;SDS011;5033;46.310;11.214;2023-12-20T03:00:37;3.40;;;3.20;;
9986;SDS011;5033;46.310;11.214;2023-12-20T03:03:04;3.50;;;3.30;;
9986;SDS011;5033;46.310;11.214;2023-12-20T03:05:31;3.00;;;2.80;;
9986;SDS011;5033;46.310;11.214;2023-12-20T03:07:59;3.60;;;3.40;;
9986;SDS011;5033;46.310;11.214;2023-12-20T03:10:26;3.47;;;3.28;;
9986;SDS011;5033;46.310;11.214;2023-12-20T03:12:53;3.65;;;3.35;;
9986;SDS011;5033;46.310;11.214;2023-12-20T03:15:22;3.92;;;3.63;;
9986;SDS011;5033;46.310;11.214;2023-12-20T03:17:49;3.00;;;2.80;;
9986;SDS011;5033;46.310;11.214;2023-12-20T03:20:16;3.83;;;3.53;;
9986;SDS011;5033;46.310;11.214;2023-12-20T03:22:43;4.03;;;3.72;;
9986;SDS011;5033;46.310;11.214;2023-12-20T03:25:10;3.03;;;2.83;;
9986;SDS011;5033;46.310;11.214;2023-12-20T03:27:37;3.58;;;3.38;;
9986;SDS011;5033;46.310;11.214;2023-12-20T03:30:05;3.42;;;3.22;;
9986;SDS011;5033;46.310;11.214;2023-12-20T03:32:34;3.08;;;2.90;;
9986;SDS011;5033;46.310;11.214;2023-12-20T03:35:01;3.55;;;3.30;;
9986;SDS011;5033;46.310;11.214;2023-12-20T03:37:28;3.17;;;2.97;;
9986;SDS011;5033;46.310;11.214;2023-12-20T03:39:55;3.60;;;3.40;;
9986;SDS011;5033;46.310;11.214;2023-12-20T03:42:21;3.80;;;3.50;;
9986;SDS011;5033;46.310;11.214;2023-12-20T03:44:48;3.38;;;3.17;;
9986;SDS011;5033;46.310;11.214;2023-12-20T03:47:15;3.28;;;3.08;;
9986;SDS011;5033;46.310;11.214;2023-12-20T03:49:44;3.45;;;3.25;;
9986;SDS011;5033;46.310;11.214;2023-12-20T03:52:11;3.50;;;3.30;;
9986;SDS011;5033;46.310;11.214;2023-12-20T03:54:38;3.67;;;3.47;;
9986;SDS011;5033;46.310;11.214;2023-12-20T03:57:05;4.00;;;3.70;;
9986;SDS011;5033;46.310;11.214;2023-12-20T03:59:34;3.92;;;3.63;;
9986;SDS011;5033;46.310;11.214;2023-12-20T04:02:02;4.63;;;3.60;;
9986;SDS011;5033;46.310;11.214;2023-12-20T04:04:29;4.25;;;3.95;;
9986;SDS011;5033;46.310;11.214;2023-12-20T04:06:58;3.60;;;3.35;;
9986;SDS011;5033;46.310;11.214;2023-12-20T04:09:25;3.88;;;3.58;;
9986;SDS011;5033;46.310;11.214;2023-12-20T04:11:52;4.07;;;3.78;;
9986;SDS011;5033;46.310;11.214;2023-12-20T04:14:20;3.90;;;3.53;;
9986;SDS011;5033;46.310;11.214;2023-12-20T04:16:47;3.70;;;3.40;;
9986;SDS011;5033;46.310;11.214;2023-12-20T04:19:14;3.83;;;3.53;;
9986;SDS011;5033;46.310;11.214;2023-12-20T04:21:41;3.92;;;3.63;;
9986;SDS011;5033;46.310;11.214;2023-12-20T04:24:10;4.55;;;4.15;;
9986;SDS011;5033;46.310;11.214;2023-12-20T04:26:37;4.15;;;3.75;;
9986;SDS011;5033;46.310;11.214;2023-12-20T04:29:04;3.85;;;3.65;;
9986;SDS011;5033;46.310;11.214;2023-12-20T04:31:31;3.45;;;3.25;;
9986;SDS011;5033;46.310;11.214;2023-12-20T04:33:58;3.63;;;3.35;;
9986;SDS011;5033;46.310;11.214;2023-12-20T04:36:25;3.72;;;3.42;;
9986;SDS011;5033;46.310;11.214;2023-12-20T04:38:55;4.13;;;3.83;;
9986;SDS011;5033;46.310;11.214;2023-12-20T04:41:23;3.97;;;3.67;;
9986;SDS011;5033;46.310;11.214;2023-12-20T04:43:50;3.10;;;2.90;;
9986;SDS011;5033;46.310;11.214;2023-12-20T04:46:17;3.28;;;3.08;;
9986;SDS011;5033;46.310;11.214;2023-12-20T04:48:44;3.75;;;3.55;;
9986;SDS011;5033;46.310;11.214;2023-12-20T04:51:11;3.20;;;3.00;;
9986;SDS011;5033;46.310;11.214;2023-12-20T04:53:38;3.60;;;3.30;;
9986;SDS011;5033;46.310;11.214;2023-12-20T04:56:05;3.67;;;3.38;;
9986;SDS011;5033;46.310;11.214;2023-12-20T04:58:34;3.22;;;3.03;;
9986;SDS011;5033;46.310;11.214;2023-12-20T05:01:01;3.50;;;3.30;;
9986;SDS011;5033;46.310;11.214;2023-12-20T05:03:29;3.38;;;3.17;;
9986;SDS011;5033;46.310;11.214;2023-12-20T05:05:56;3.33;;;3.13;;
9986;SDS011;5033;46.310;11.214;2023-12-20T05:08:23;3.53;;;3.33;;
9986;SDS011;5033;46.310;11.214;2023-12-20T05:10:51;3.33;;;3.13;;
9986;SDS011;5033;46.310;11.214;2023-12-20T05:13:20;3.28;;;3.08;;
9986;SDS011;5033;46.310;11.214;2023-12-20T05:15:48;3.25;;;3.05;;
9986;SDS011;5033;46.310;11.214;2023-12-20T05:18:16;3.80;;;3.50;;
9986;SDS011;5033;46.310;11.214;2023-12-20T05:20:43;3.22;;;3.03;;
9986;SDS011;5033;46.310;11.214;2023-12-20T05:23:11;3.33;;;3.13;;
9986;SDS011;5033;46.310;11.214;2023-12-20T05:25:38;3.60;;;3.40;;
9986;SDS011;5033;46.310;11.214;2023-12-20T05:28:05;3.20;;;3.00;;
9986;SDS011;5033;46.310;11.214;2023-12-20T05:30:32;3.17;;;2.97;;
9986;SDS011;5033;46.310;11.214;2023-12-20T05:33:01;3.45;;;3.25;;
9986;SDS011;5033;46.310;11.214;2023-12-20T05:35:28;3.38;;;3.17;;
9986;SDS011;5033;46.310;11.214;2023-12-20T05:37:55;3.25;;;3.05;;
9986;SDS011;5033;46.310;11.214;2023-12-20T05:40:22;3.70;;;3.40;;
9986;SDS011;5033;46.310;11.214;2023-12-20T05:42:49;3.35;;;3.15;;
9986;SDS011;5033;46.310;11.214;2023-12-20T05:45:16;3.28;;;2.97;;
9986;SDS011;5033;46.310;11.214;2023-12-20T05:47:43;3.33;;;3.13;;
9986;SDS011;5033;46.310;11.214;2023-12-20T05:50:11;3.33;;;3.13;;
9986;SDS011;5033;46.310;11.214;2023-12-20T05:52:38;3.60;;;3.40;;
9986;SDS011;5033;46.310;11.214;2023-12-20T05:55:06;3.53;;;3.33;;
9986;SDS011;5033;46.310;11.214;2023-12-20T05:57:33;3.45;;;3.25;;
9986;SDS011;5033;46.310;11.214;2023-12-20T06:00:01;4.18;;;3.88;;
9986;SDS011;5033;46.310;11.214;2023-12-20T06:02:28;3.70;;;3.50;;
9986;SDS011;5033;46.310;11.214;2023-12-20T06:04:55;3.63;;;3.42;;
9986;SDS011;5033;46.310;11.214;2023-12-20T06:07:24;3.80;;;3.50;;
9986;SDS011;5033;46.310;11.214;2023-12-20T06:09:51;3.50;;;3.20;;
9986;SDS011;5033;46.310;11.214;2023-12-20T06:12:18;3.70;;;3.47;;
9986;SDS011;5033;46.310;11.214;2023-12-20T06:14:45;3.20;;;3.00;;
9986;SDS011;5033;46.310;11.214;2023-12-20T06:17:12;3.95;;;3.28;;
9986;SDS011;5033;46.310;11.214;2023-12-20T06:19:39;3.70;;;3.50;;
9986;SDS011;5033;46.310;11.214;2023-12-20T06:22:07;3.55;;;3.28;;
9986;SDS011;5033;46.310;11.214;2023-12-20T06:24:36;4.07;;;3.78;;
9986;SDS011;5033;46.310;11.214;2023-12-20T06:27:03;3.70;;;3.50;;
9986;SDS011;5033;46.310;11.214;2023-12-20T06:29:30;3.80;;;3.60;;
9986;SDS011;5033;46.310;11.214;2023-12-20T06:31:57;4.07;;;3.78;;
9986;SDS011;5033;46.310;11.214;2023-12-20T06:34:24;3.83;;;3.63;;
9986;SDS011;5033;46.310;11.214;2023-12-20T06:36:51;3.78;;;3.42;;
9986;SDS011;5033;46.310;11.214;2023-12-20T06:39:18;4.10;;;3.80;;
9986;SDS011;5033;46.310;11.214;2023-12-20T06:41:46;4.65;;;4.35;;
9986;SDS011;5033;46.310;11.214;2023-12-20T06:44:14;3.85;;;3.55;;
9986;SDS011;5033;46.310;11.214;2023-12-20T06:46:41;4.00;;;3.70;;
9986;SDS011;5033;46.310;11.214;2023-12-20T06:49:08;3.88;;;3.67;;
9986;SDS011;5033;46.310;11.214;2023-12-20T06:51:35;3.80;;;3.50;;
9986;SDS011;5033;46.310;11.214;2023-12-20T06:54:02;3.72;;;3.53;;
9986;SDS011;5033;46.310;11.214;2023-12-20T06:56:29;4.20;;;3.90;;
9986;SDS011;5033;46.310;11.214;2023-12-20T06:58:58;4.15;;;3.85;;
9986;SDS011;5033;46.310;11.214;2023-12-20T07:01:25;4.45;;;4.10;;
9986;SDS011;5033;46.310;11.214;2023-12-20T07:03:52;4.38;;;4.07;;
9986;SDS011;5033;46.310;11.214;2023-12-20T07:06:19;4.20;;;3.97;;
9986;SDS011;5033;46.310;11.214;2023-12-20T07:08:46;3.78;;;3.58;;
9986;SDS011;5033;46.310;11.214;2023-12-20T07:11:13;4.60;;;4.30;;
9986;SDS011;5033;46.310;11.214;2023-12-20T07:13:40;4.35;;;4.00;;
9986;SDS011;5033;46.310;11.214;2023-12-20T07:16:08;5.57;;;5.07;;
9986;SDS011;5033;46.310;11.214;2023-12-20T07:18:35;4.10;;;3.80;;
9986;SDS011;5033;46.310;11.214;2023-12-20T07:21:03;4.13;;;3.83;;
9986;SDS011;5033;46.310;11.214;2023-12-20T07:23:32;5.38;;;4.88;;
9986;SDS011;5033;46.310;11.214;2023-12-20T07:25:59;4.55;;;4.15;;
9986;SDS011;5033;46.310;11.214;2023-12-20T07:28:26;4.72;;;4.40;;
9986;SDS011;5033;46.310;11.214;2023-12-20T07:30:54;5.30;;;4.80;;
9986;SDS011;5033;46.310;11.214;2023-12-20T07:33:22;4.82;;;4.43;;
9986;SDS011;5033;46.310;11.214;2023-12-20T07:35:49;4.80;;;4.22;;
9986;SDS011;5033;46.310;11.214;2023-12-20T07:38:17;5.32;;;4.20;;
9986;SDS011;5033;46.310;11.214;2023-12-20T07:40:44;4.38;;;4.07;;
9986;SDS011;5033;46.310;11.214;2023-12-20T07:43:11;3.70;;;3.45;;
9986;SDS011;5033;46.310;11.214;2023-12-20T07:45:38;4.03;;;3.72;;
9986;SDS011;5033;46.310;11.214;2023-12-20T07:48:06;4.30;;;4.00;;
9986;SDS011;5033;46.310;11.214;2023-12-20T07:50:35;3.72;;;3.47;;
9986;SDS011;5033;46.310;11.214;2023-12-20T07:53:02;4.95;;;4.57;;
9986;SDS011;5033;46.310;11.214;2023-12-20T07:55:29;4.93;;;4.43;;
9986;SDS011;5033;46.310;11.214;2023-12-20T07:57:57;5.43;;;4.93;;
9986;SDS011;5033;46.310;11.214;2023-12-20T08:00:24;5.40;;;5.00;;
9986;SDS011;5033;46.310;11.214;2023-12-20T08:02:51;5.20;;;4.80;;
9986;SDS011;5033;46.310;11.214;2023-12-20T08:05:18;5.50;;;5.05;;
9986;SDS011;5033;46.310;11.214;2023-12-20T08:07:47;5.55;;;5.05;;
9986;SDS011;5033;46.310;11.214;2023-12-20T08:10:14;5.28;;;4.88;;
9986;SDS011;5033;46.310;11.214;2023-12-20T08:12:41;6.30;;;5.47;;
9986;SDS011;5033;46.310;11.214;2023-12-20T08:15:08;5.03;;;4.63;;
9986;SDS011;5033;46.310;11.214;2023-12-20T08:17:36;5.55;;;5.15;;
9986;SDS011;5033;46.310;11.214;2023-12-20T08:20:03;5.60;;;5.10;;
9986;SDS011;5033;46.310;11.214;2023-12-20T08:22:31;6.00;;;5.28;;
9986;SDS011;5033;46.310;11.214;2023-12-20T08:24:59;4.90;;;4.50;;
9986;SDS011;5033;46.310;11.214;2023-12-20T08:27:26;5.47;;;5.07;;
9986;SDS011;5033;46.310;11.214;2023-12-20T08:29:53;5.10;;;4.70;;
9986;SDS011;5033;46.310;11.214;2023-12-20T08:32:21;5.28;;;4.78;;
9986;SDS011;5033;46.310;11.214;2023-12-20T08:34:48;5.88;;;4.78;;
9986;SDS011;5033;46.310;11.214;2023-12-20T08:37:15;5.53;;;5.03;;
9986;SDS011;5033;46.310;11.214;2023-12-20T08:39:42;5.05;;;4.57;;
9986;SDS011;5033;46.310;11.214;2023-12-20T08:42:11;4.80;;;4.20;;
9986;SDS011;5033;46.310;11.214;2023-12-20T08:44:38;4.93;;;4.53;;
9986;SDS011;5033;46.310;11.214;2023-12-20T08:47:05;4.70;;;4.40;;
9986;SDS011;5033;46.310;11.214;2023-12-20T08:49:32;5.05;;;4.65;;
9986;SDS011;5033;46.310;11.214;2023-12-20T08:51:59;5.22;;;4.82;;
9986;SDS011;5033;46.310;11.214;2023-12-20T08:54:26;4.72;;;4.43;;
9986;SDS011;5033;46.310;11.214;2023-12-20T08:56:53;4.22;;;3.92;;
9986;SDS011;5033;46.310;11.214;2023-12-20T08:59:22;5.65;;;5.15;;
9986;SDS011;5033;46.310;11.214;2023-12-20T09:01:49;4.70;;;4.40;;
9986;SDS011;5033;46.310;11.214;2023-12-20T09:04:19;4.50;;;4.20;;
9986;SDS011;5033;46.310;11.214;2023-12-20T09:06:46;4.35;;;3.95;;
9986;SDS011;5033;46.310;11.214;2023-12-20T09:09:13;4.18;;;3.85;;
9986;SDS011;5033;46.310;11.214;2023-12-20T09:11:40;3.97;;;3.67;;
9986;SDS011;5033;46.310;11.214;2023-12-20T09:14:08;3.58;;;3.38;;
9986;SDS011;5033;46.310;11.214;2023-12-20T09:16:36;3.63;;;3.42;;
9986;SDS011;5033;46.310;11.214;2023-12-20T09:19:03;4.13;;;3.83;;
9986;SDS011;5033;46.310;11.214;2023-12-20T09:21:30;3.85;;;3.60;;
9986;SDS011;5033;46.310;11.214;2023-12-20T09:23:57;4.55;;;4.20;;
9986;SDS011;5033;46.310;11.214;2023-12-20T09:26:25;4.65;;;4.20;;
9986;SDS011;5033;46.310;11.214;2023-12-20T09:28:52;4.40;;;4.10;;
9986;SDS011;5033;46.310;11.214;2023-12-20T09:31:19;5.32;;;4.85;;
9986;SDS011;5033;46.310;11.214;2023-12-20T09:33:47;5.45;;;4.95;;
9986;SDS011;5033;46.310;11.214;2023-12-20T09:36:14;5.75;;;5.20;;
9986;SDS011;5033;46.310;11.214;2023-12-20T09:38:41;5.47;;;4.97;;
9986;SDS011;5033;46.310;11.214;2023-12-20T09:41:08;5.40;;;4.90;;
9986;SDS011;5033;46.310;11.214;2023-12-20T09:43:37;5.53;;;5.03;;
9986;SDS011;5033;46.310;11.214;2023-12-20T09:46:05;5.22;;;4.82;;
9986;SDS011;5033;46.310;11.214;2023-12-20T09:48:33;5.65;;;4.82;;
9986;SDS011;5033;46.310;11.214;2023-12-20T09:51:02;6.00;;;4.57;;
9986;SDS011;5033;46.310;11.214;2023-12-20T09:53:29;5.35;;;4.88;;
9986;SDS011;5033;46.310;11.214;2023-12-20T09:55:59;5.47;;;4.85;;
9986;SDS011;5033;46.310;11.214;2023-12-20T09:58:26;5.93;;;5.35;;
9986;SDS011;5033;46.310;11.214;2023-12-20T10:00:53;5.60;;;5.10;;
9986;SDS011;5033;46.310;11.214;2023-12-20T10:03:23;4.93;;;4.53;;
9986;SDS011;5033;46.310;11.214;2023-12-20T10:05:52;7.57;;;5.10;;
9986;SDS011;5033;46.310;11.214;2023-12-20T10:08:24;5.60;;;5.10;;
9986;SDS011;5033;46.310;11.214;2023-12-20T10:10:51;5.35;;;4.85;;
9986;SDS011;5033;46.310;11.214;2023-12-20T10:13:18;5.32;;;4.93;;
9986;SDS011;5033;46.310;11.214;2023-12-20T10:15:45;5.25;;;4.85;;
9986;SDS011;5033;46.310;11.214;2023-12-20T10:18:12;5.40;;;4.90;;
9986;SDS011;5033;46.310;11.214;2023-12-20T10:20:40;5.38;;;4.90;;
9986;SDS011;5033;46.310;11.214;2023-12-20T10:23:07;5.00;;;4.60;;
9986;SDS011;5033;46.310;11.214;2023-12-20T10:25:36;4.47;;;4.13;;
9986;SDS011;5033;46.310;11.214;2023-12-20T10:28:10;4.68;;;4.38;;
9986;SDS011;5033;46.310;11.214;2023-12-20T10:30:38;4.40;;;4.05;;
9986;SDS011;5033;46.310;11.214;2023-12-20T10:33:06;4.10;;;3.70;;
9986;SDS011;5033;46.310;11.214;2023-12-20T10:35:33;4.40;;;4.10;;
9986;SDS011;5033;46.310;11.214;2023-12-20T10:38:01;4.25;;;3.95;;
9986;SDS011;5033;46.310;11.214;2023-12-20T10:40:30;4.35;;;3.92;;
9986;SDS011;5033;46.310;11.214;2023-12-20T10:42:59;4.93;;;4.53;;
9986;SDS011;5033;46.310;11.214;2023-12-20T10:45:28;6.22;;;5.68;;
9986;SDS011;5033;46.310;11.214;2023-12-20T10:47:55;6.10;;;5.60;;
9986;SDS011;5033;46.310;11.214;2023-12-20T10:50:25;6.65;;;5.88;;
9986;SDS011;5033;46.310;11.214;2023-12-20T10:52:54;6.75;;;6.03;;
9986;SDS011;5033;46.310;11.214;2023-12-20T10:55:22;5.70;;;5.15;;
9986;SDS011;5033;46.310;11.214;2023-12-20T10:57:49;4.97;;;4.57;;
9986;SDS011;5033;46.310;11.214;2023-12-20T11:00:19;5.30;;;4.80;;
9986;SDS011;5033;46.310;11.214;2023-12-20T11:02:49;6.43;;;5.35;;
9986;SDS011;5033;46.310;11.214;2023-12-20T11:05:23;5.20;;;4.70;;
9986;SDS011;5033;46.310;11.214;2023-12-20T11:07:58;5.65;;;5.07;;
9986;SDS011;5033;46.310;11.214;2023-12-20T11:10:35;5.03;;;4.57;;
9986;SDS011;5033;46.310;11.214;2023-12-20T11:13:08;5.28;;;4.80;;
9986;SDS011;5033;46.310;11.214;2023-12-20T11:15:44;5.55;;;5.05;;
9986;SDS011;5033;46.310;11.214;2023-12-20T11:18:12;6.10;;;5.03;;
9986;SDS011;5033;46.310;11.214;2023-12-20T11:20:39;5.50;;;5.00;;
9986;SDS011;5033;46.310;11.214;2023-12-20T11:23:07;6.03;;;5.53;;
9986;SDS011;5033;46.310;11.214;2023-12-20T11:28:21;6.00;;;5.50;;
9986;SDS011;5033;46.310;11.214;2023-12-20T11:30:51;5.90;;;5.40;;
9986;SDS011;5033;46.310;11.214;2023-12-20T11:33:22;5.45;;;4.95;;
9986;SDS011;5033;46.310;11.214;2023-12-20T11:35:50;7.38;;;6.10;;
9986;SDS011;5033;46.310;11.214;2023-12-20T11:38:19;7.28;;;6.20;;
9986;SDS011;5033;46.310;11.214;2023-12-20T11:40:47;6.45;;;5.82;;
9986;SDS011;5033;46.310;11.214;2023-12-20T11:43:29;6.63;;;5.82;;
9986;SDS011;5033;46.310;11.214;2023-12-20T11:46:03;6.32;;;5.70;;
9986;SDS011;5033;46.310;11.214;2023-12-20T11:48:31;5.60;;;5.10;;
9986;SDS011;5033;46.310;11.214;2023-12-20T11:50:58;5.78;;;5.05;;
9986;SDS011;5033;46.310;11.214;2023-12-20T11:53:26;6.30;;;5.70;;
9986;SDS011;5033;46.310;11.214;2023-12-20T11:55:53;5.57;;;5.03;;
9986;SDS011;5033;46.310;11.214;2023-12-20T11:58:21;5.55;;;4.97;;
9986;SDS011;5033;46.310;11.214;2023-12-20T12:00:48;6.05;;;5.47;;
9986;SDS011;5033;46.310;11.214;2023-12-20T12:03:17;7.45;;;5.57;;
9986;SDS011;5033;46.310;11.214;2023-12-20T12:05:46;7.88;;;5.90;;
9986;SDS011;5033;46.310;11.214;2023-12-20T12:08:14;8.82;;;5.85;;
9986;SDS011;5033;46.310;11.214;2023-12-20T12:10:42;7.18;;;5.60;;
9986;SDS011;5033;46.310;11.214;2023-12-20T12:13:09;9.25;;;6.15;;
9986;SDS011;5033;46.310;11.214;2023-12-20T12:15:37;6.75;;;6.00;;
9986;SDS011;5033;46.310;11.214;2023-12-20T12:18:05;9.55;;;6.63;;
9986;SDS011;5033;46.310;11.214;2023-12-20T12:20:33;10.05;;;7.35;;
9986;SDS011;5033;46.310;11.214;2023-12-20T12:23:01;8.80;;;6.95;;
9986;SDS011;5033;46.310;11.214;2023-12-20T12:25:29;7.70;;;6.55;;
9986;SDS011;5033;46.310;11.214;2023-12-20T12:27:57;7.82;;;6.57;;
9986;SDS011;5033;46.310;11.214;2023-12-20T12:30:24;7.22;;;6.53;;
9986;SDS011;5033;46.310;11.214;2023-12-20T12:32:52;7.32;;;6.63;;
9986;SDS011;5033;46.310;11.214;2023-12-20T12:35:19;7.78;;;6.03;;
9986;SDS011;5033;46.310;11.214;2023-12-20T12:37:48;7.95;;;6.63;;
9986;SDS011;5033;46.310;11.214;2023-12-20T12:40:15;8.23;;;6.10;;
9986;SDS011;5033;46.310;11.214;2023-12-20T12:42:44;8.05;;;6.22;;
9986;SDS011;5033;46.310;11.214;2023-12-20T12:45:11;6.07;;;5.47;;
9986;SDS011;5033;46.310;11.214;2023-12-20T12:47:38;6.57;;;5.90;;
9986;SDS011;5033;46.310;11.214;2023-12-20T12:50:06;7.10;;;6.03;;
9986;SDS011;5033;46.310;11.214;2023-12-20T12:52:33;6.35;;;5.80;;
9986;SDS011;5033;46.310;11.214;2023-12-20T12:55:03;9.35;;;6.35;;
9986;SDS011;5033;46.310;11.214;2023-12-20T12:57:30;6.55;;;5.75;;
9986;SDS011;5033;46.310;11.214;2023-12-20T12:59:59;6.38;;;5.53;;
9986;SDS011;5033;46.310;11.214;2023-12-20T13:02:28;6.97;;;5.40;;
9986;SDS011;5033;46.310;11.214;2023-12-20T13:04:55;7.50;;;6.35;;
9986;SDS011;5033;46.310;11.214;2023-12-20T13:07:22;5.50;;;5.00;;
9986;SDS011;5033;46.310;11.214;2023-12-20T13:09:50;7.00;;;5.60;;
9986;SDS011;5033;46.310;11.214;2023-12-20T13:12:18;5.40;;;4.90;;
9986;SDS011;5033;46.310;11.214;2023-12-20T13:14:46;6.00;;;5.40;;
9986;SDS011;5033;46.310;11.214;2023-12-20T13:17:13;5.30;;;4.85;;
9986;SDS011;5033;46.310;11.214;2023-12-20T13:19:41;5.57;;;5.07;;
9986;SDS011;5033;46.310;11.214;2023-12-20T13:22:08;6.78;;;5.15;;
9986;SDS011;5033;46.310;11.214;2023-12-20T13:24:35;5.82;;;5.15;;
9986;SDS011;5033;46.310;11.214;2023-12-20T13:27:03;5.63;;;4.65;;
9986;SDS011;5033;46.310;11.214;2023-12-20T13:29:31;5.60;;;4.93;;
9986;SDS011;5033;46.310;11.214;2023-12-20T13:32:01;8.20;;;5.28;;
9986;SDS011;5033;46.310;11.214;2023-12-20T13:34:29;6.63;;;5.45;;
9986;SDS011;5033;46.310;11.214;2023-12-20T13:36:56;6.90;;;5.55;;
9986;SDS011;5033;46.310;11.214;2023-12-20T13:39:23;5.65;;;5.10;;
9986;SDS011;5033;46.310;11.214;2023-12-20T13:41:50;6.85;;;6.10;;
9986;SDS011;5033;46.310;11.214;2023-12-20T13:44:18;10.00;;;6.97;;
9986;SDS011;5033;46.310;11.214;2023-12-20T13:46:46;7.18;;;6.47;;
9986;SDS011;5033;46.310;11.214;2023-12-20T13:49:14;7.55;;;6.72;;
9986;SDS011;5033;46.310;11.214;2023-12-20T13:51:41;6.53;;;5.93;;
9986;SDS011;5033;46.310;11.214;2023-12-20T13:54:08;5.65;;;5.15;;
9986;SDS011;5033;46.310;11.214;2023-12-20T13:56:36;5.80;;;5.28;;
9986;SDS011;5033;46.310;11.214;2023-12-20T13:59:03;5.82;;;5.22;;
9986;SDS011;5033;46.310;11.214;2023-12-20T14:01:30;6.13;;;4.90;;
9986;SDS011;5033;46.310;11.214;2023-12-20T14:03:58;5.68;;;5.18;;
9986;SDS011;5033;46.310;11.214;2023-12-20T14:06:26;5.60;;;5.10;;
9986;SDS011;5033;46.310;11.214;2023-12-20T14:08:53;5.25;;;4.85;;
9986;SDS011;5033;46.310;11.214;2023-12-20T14:11:20;4.20;;;3.80;;
9986;SDS011;5033;46.310;11.214;2023-12-20T14:13:47;5.70;;;4.38;;
9986;SDS011;5033;46.310;11.214;2023-12-20T14:16:14;4.47;;;4.07;;
9986;SDS011;5033;46.310;11.214;2023-12-20T14:18:42;4.60;;;4.10;;
9986;SDS011;5033;46.310;11.214;2023-12-20T14:21:10;4.22;;;3.92;;
9986;SDS011;5033;46.310;11.214;2023-12-20T14:23:37;3.70;;;3.40;;
9986;SDS011;5033;46.310;11.214;2023-12-20T14:26:04;3.50;;;3.20;;
9986;SDS011;5033;46.310;11.214;2023-12-20T14:28:31;3.63;;;3.33;;
9986;SDS011;5033;46.310;11.214;2023-12-20T14:30:58;3.53;;;3.22;;
9986;SDS011;5033;46.310;11.214;2023-12-20T14:33:25;3.28;;;2.97;;
9986;SDS011;5033;46.310;11.214;2023-12-20T14:35:52;3.40;;;3.10;;
9986;SDS011;5033;46.310;11.214;2023-12-20T14:38:21;4.53;;;3.70;;
9986;SDS011;5033;46.310;11.214;2023-12-20T14:40:48;4.10;;;3.70;;
9986;SDS011;5033;46.310;11.214;2023-12-20T14:43:15;3.80;;;3.50;;
9986;SDS011;5033;46.310;11.214;2023-12-20T14:45:43;3.70;;;3.40;;
9986;SDS011;5033;46.310;11.214;2023-12-20T14:48:10;3.88;;;3.58;;
9986;SDS011;5033;46.310;11.214;2023-12-20T14:50:37;4.63;;;3.78;;
9986;SDS011;5033;46.310;11.214;2023-12-20T14:53:06;4.53;;;4.10;;
9986;SDS011;5033;46.310;11.214;2023-12-20T14:55:34;4.05;;;3.65;;
9986;SDS011;5033;46.310;11.214;2023-12-20T14:58:02;4.78;;;3.72;;
9986;SDS011;5033;46.310;11.214;2023-12-20T15:00:30;4.55;;;4.15;;
9986;SDS011;5033;46.310;11.214;2023-12-20T15:02:57;4.95;;;4.55;;
9986;SDS011;5033;46.310;11.214;2023-12-20T15:05:24;4.47;;;4.07;;